sensor_id;sensor_type;location;lat;lon;timestamp;pressure;altitude;pressure_sealevel;temperature;humidity
79309;BME280;68767;53.078;7.386;2023-08-07T00:02:25;101034.16;;;13.97;100.00
79309;BME280;68767;53.078;7.386;2023-08-07T00:04:52;101033.84;;;13.98;100.00
79309;BME280;68767;53.078;7.386;2023-08-07T00:07:19;101032.81;;;14.03;100.00
79309;BME280;68767;53.078;7.386;2023-08-07T00:09:46;101033.03;;;13.98;100.00
79309;BME280;68767;53.078;7.386;2023-08-07T00:12:13;101039.44;;;13.93;100.00
79309;BME280;68767;53.078;7.386;2023-08-07T00:14:41;101036.75;;;13.93;100.00
79309;BME280;68767;53.078;7.386;2023-08-07T00:17:08;101034.63;;;13.99;100.00
79309;BME280;68767;53.078;7.386;2023-08-07T00:19:35;101035.09;;;14.01;100.00
79309;BME280;68767;53.078;7.386;2023-08-07T00:22:02;101042.94;;;13.94;100.00
79309;BME280;68767;53.078;7.386;2023-08-07T00:24:30;101037.66;;;13.97;100.00
79309;BME280;68767;53.078;7.386;2023-08-07T00:26:58;101039.25;;;13.98;100.00
79309;BME280;68767;53.078;7.386;2023-08-07T00:29:25;101037.88;;;13.92;100.00
79309;BME280;68767;53.078;7.386;2023-08-07T00:31:52;101043.72;;;13.94;100.00
79309;BME280;68767;53.078;7.386;2023-08-07T00:34:19;101032.59;;;13.96;100.00
79309;BME280;68767;53.078;7.386;2023-08-07T00:36:46;101044.50;;;13.95;100.00
79309;BME280;68767;53.078;7.386;2023-08-07T00:39:13;101028.50;;;13.90;100.00
79309;BME280;68767;53.078;7.386;2023-08-07T00:41:40;101038.41;;;13.86;100.00
79309;BME280;68767;53.078;7.386;2023-08-07T00:44:08;101042.00;;;13.90;100.00
79309;BME280;68767;53.078;7.386;2023-08-07T00:46:35;101055.53;;;13.90;100.00
79309;BME280;68767;53.078;7.386;2023-08-07T00:49:03;101042.94;;;13.94;100.00
79309;BME280;68767;53.078;7.386;2023-08-07T00:51:30;101053.59;;;13.78;100.00
79309;BME280;68767;53.078;7.386;2023-08-07T00:53:58;101054.38;;;13.78;100.00
79309;BME280;68767;53.078;7.386;2023-08-07T00:56:26;101047.50;;;13.81;100.00
79309;BME280;68767;53.078;7.386;2023-08-07T00:58:53;101051.81;;;13.82;100.00
79309;BME280;68767;53.078;7.386;2023-08-07T01:01:20;101047.84;;;13.80;100.00
79309;BME280;68767;53.078;7.386;2023-08-07T01:03:47;101047.19;;;13.83;100.00
79309;BME280;68767;53.078;7.386;2023-08-07T01:06:14;101044.59;;;13.74;100.00
79309;BME280;68767;53.078;7.386;2023-08-07T01:08:41;101039.28;;;13.77;100.00
79309;BME280;68767;53.078;7.386;2023-08-07T01:11:20;101046.47;;;13.73;100.00
79309;BME280;68767;53.078;7.386;2023-08-07T01:13:55;101047.50;;;13.81;100.00
79309;BME280;68767;53.078;7.386;2023-08-07T01:16:48;101045.38;;;13.74;100.00
79309;BME280;68767;53.078;7.386;2023-08-07T01:19:25;101028.28;;;13.83;100.00
79309;BME280;68767;53.078;7.386;2023-08-07T01:22:08;101037.50;;;13.82;100.00
79309;BME280;68767;53.078;7.386;2023-08-07T01:24:38;101042.00;;;13.77;100.00
79309;BME280;68767;53.078;7.386;2023-08-07T01:35:23;101035.63;;;13.61;100.00
79309;BME280;68767;53.078;7.386;2023-08-07T01:37:55;101041.63;;;13.67;100.00
79309;BME280;68767;53.078;7.386;2023-08-07T01:40:24;101032.16;;;13.61;100.00
79309;BME280;68767;53.078;7.386;2023-08-07T01:42:52;101035.63;;;13.61;100.00
79309;BME280;68767;53.078;7.386;2023-08-07T01:45:24;101034.97;;;13.64;100.00
79309;BME280;68767;53.078;7.386;2023-08-07T01:47:51;101021.81;;;13.63;100.00
79309;BME280;68767;53.078;7.386;2023-08-07T01:50:23;101024.41;;;13.59;100.00
79309;BME280;68767;53.078;7.386;2023-08-07T01:52:52;101032.25;;;13.64;100.00
79309;BME280;68767;53.078;7.386;2023-08-07T01:55:22;101026.75;;;13.61;100.00
79309;BME280;68767;53.078;7.386;2023-08-07T01:57:50;101025.44;;;13.67;100.00
79309;BME280;68767;53.078;7.386;2023-08-07T02:00:18;101022.41;;;13.68;100.00
79309;BME280;68767;53.078;7.386;2023-08-07T02:02:45;101032.06;;;13.69;100.00
79309;BME280;68767;53.078;7.386;2023-08-07T02:05:15;101036.34;;;13.70;100.00
79309;BME280;68767;53.078;7.386;2023-08-07T02:07:42;101039.81;;;13.71;100.00
79309;BME280;68767;53.078;7.386;2023-08-07T02:10:09;101033.78;;;13.74;100.00
79309;BME280;68767;53.078;7.386;2023-08-07T02:12:37;101032.19;;;13.73;100.00
79309;BME280;68767;53.078;7.386;2023-08-07T02:15:04;101045.47;;;13.66;100.00
79309;BME280;68767;53.078;7.386;2023-08-07T02:17:31;101034.44;;;13.71;100.00
79309;BME280;68767;53.078;7.386;2023-08-07T02:19:58;101036.16;;;13.75;100.00
79309;BME280;68767;53.078;7.386;2023-08-07T02:22:25;101034.56;;;13.74;100.00
79309;BME280;68767;53.078;7.386;2023-08-07T02:24:52;101035.91;;;13.81;100.00
79309;BME280;68767;53.078;7.386;2023-08-07T02:27:19;101032.44;;;13.80;100.00
79309;BME280;68767;53.078;7.386;2023-08-07T02:29:46;101037.81;;;13.80;100.00
79309;BME280;68767;53.078;7.386;2023-08-07T02:32:13;101041.53;;;13.75;100.00
79309;BME280;68767;53.078;7.386;2023-08-07T02:34:41;101041.66;;;13.79;100.00
79309;BME280;68767;53.078;7.386;2023-08-07T02:37:08;101051.13;;;13.85;100.00
79309;BME280;68767;53.078;7.386;2023-08-07T02:39:35;101041.88;;;13.74;100.00
79309;BME280;68767;53.078;7.386;2023-08-07T02:42:02;101045.38;;;13.74;100.00
79309;BME280;68767;53.078;7.386;2023-08-07T02:44:29;101049.84;;;13.70;100.00
79309;BME280;68767;53.078;7.386;2023-08-07T02:46:56;101049.16;;;13.73;100.00
79309;BME280;68767;53.078;7.386;2023-08-07T02:49:24;101046.81;;;13.72;100.00
79309;BME280;68767;53.078;7.386;2023-08-07T02:51:51;101032.06;;;13.69;100.00
79309;BME280;68767;53.078;7.386;2023-08-07T02:54:19;101039.72;;;13.67;100.00
79309;BME280;68767;53.078;7.386;2023-08-07T02:56:46;101047.03;;;13.67;100.00
79309;BME280;68767;53.078;7.386;2023-08-07T02:59:12;101044.53;;;13.62;100.00
79309;BME280;68767;53.078;7.386;2023-08-07T03:01:39;101034.84;;;13.61;100.00
79309;BME280;68767;53.078;7.386;2023-08-07T03:04:06;101039.31;;;13.57;100.00
79309;BME280;68767;53.078;7.386;2023-08-07T03:06:33;101050.94;;;13.57;100.00
79309;BME280;68767;53.078;7.386;2023-08-07T03:09:00;101048.25;;;13.57;100.00
79309;BME280;68767;53.078;7.386;2023-08-07T03:11:27;101039.22;;;13.53;100.00
79309;BME280;68767;53.078;7.386;2023-08-07T03:13:54;101047.75;;;13.55;100.00
79309;BME280;68767;53.078;7.386;2023-08-07T03:16:22;101036.63;;;13.57;100.00
79309;BME280;68767;53.078;7.386;2023-08-07T03:18:49;101046.84;;;13.51;100.00
79309;BME280;68767;53.078;7.386;2023-08-07T03:21:16;101043.69;;;13.49;100.00
79309;BME280;68767;53.078;7.386;2023-08-07T03:23:43;101040.06;;;13.45;100.00
79309;BME280;68767;53.078;7.386;2023-08-07T03:26:11;101041.06;;;13.40;100.00
79309;BME280;68767;53.078;7.386;2023-08-07T03:28:42;101039.81;;;13.38;100.00
79309;BME280;68767;53.078;7.386;2023-08-07T03:31:08;101035.19;;;13.38;100.00
79309;BME280;68767;53.078;7.386;2023-08-07T03:33:36;101046.06;;;13.30;100.00
79309;BME280;68767;53.078;7.386;2023-08-07T03:36:04;101042.91;;;13.28;100.00
79309;BME280;68767;53.078;7.386;2023-08-07T03:38:32;101042.81;;;13.24;100.00
79309;BME280;68767;53.078;7.386;2023-08-07T03:40:59;101049.09;;;13.28;100.00
79309;BME280;68767;53.078;7.386;2023-08-07T03:43:27;101035.41;;;13.33;100.00
79309;BME280;68767;53.078;7.386;2023-08-07T03:45:57;101047.47;;;13.36;100.00
79309;BME280;68767;53.078;7.386;2023-08-07T03:48:29;101046.22;;;13.33;100.00
79309;BME280;68767;53.078;7.386;2023-08-07T03:51:06;101048.56;;;13.35;100.00
79309;BME280;68767;53.078;7.386;2023-08-07T03:53:45;101042.25;;;13.31;100.00
79309;BME280;68767;53.078;7.386;2023-08-07T03:56:12;101035.94;;;13.27;100.00
79309;BME280;68767;53.078;7.386;2023-08-07T03:58:39;101039.66;;;13.13;100.00
79309;BME280;68767;53.078;7.386;2023-08-07T04:01:06;101044.94;;;13.10;100.00
79309;BME280;68767;53.078;7.386;2023-08-07T04:03:34;101051.44;;;13.09;100.00
79309;BME280;68767;53.078;7.386;2023-08-07T04:06:01;101053.81;;;13.10;100.00
79309;BME280;68767;53.078;7.386;2023-08-07T04:08:28;101044.94;;;13.10;100.00
79309;BME280;68767;53.078;7.386;2023-08-07T04:13:27;101054.44;;;13.07;100.00
79309;BME280;68767;53.078;7.386;2023-08-07T04:15:54;101050.19;;;13.06;100.00
79309;BME280;68767;53.078;7.386;2023-08-07T04:18:21;101042.34;;;13.13;100.00
79309;BME280;68767;53.078;7.386;2023-08-07T04:20:53;101040.00;;;13.12;100.00
79309;BME280;68767;53.078;7.386;2023-08-07T04:23:21;101040.25;;;13.19;100.00
79309;BME280;68767;53.078;7.386;2023-08-07T04:25:52;101042.34;;;13.13;100.00
79309;BME280;68767;53.078;7.386;2023-08-07T04:28:20;101040.09;;;13.15;100.00
79309;BME280;68767;53.078;7.386;2023-08-07T04:30:49;101034.06;;;13.18;100.00
79309;BME280;68767;53.078;7.386;2023-08-07T04:33:20;101038.03;;;13.21;100.00
79309;BME280;68767;53.078;7.386;2023-08-07T04:35:50;101045.16;;;13.26;100.00
79309;BME280;68767;53.078;7.386;2023-08-07T04:38:17;101053.19;;;13.34;100.00
79309;BME280;68767;53.078;7.386;2023-08-07T04:40:48;101056.34;;;13.36;100.00
79309;BME280;68767;53.078;7.386;2023-08-07T04:43:17;101063.97;;;13.34;100.00
79309;BME280;68767;53.078;7.386;2023-08-07T04:45:44;101053.63;;;13.36;100.00
79309;BME280;68767;53.078;7.386;2023-08-07T04:48:12;101060.44;;;13.42;100.00
79309;BME280;68767;53.078;7.386;2023-08-07T04:50:40;101062.91;;;13.47;100.00
79309;BME280;68767;53.078;7.386;2023-08-07T04:53:07;101062.97;;;13.39;100.00
79309;BME280;68767;53.078;7.386;2023-08-07T04:55:34;101071.56;;;13.41;100.00
79309;BME280;68767;53.078;7.386;2023-08-07T04:58:01;101070.34;;;13.51;100.00
79309;BME280;68767;53.078;7.386;2023-08-07T05:00:28;101076.28;;;13.44;100.00
79309;BME280;68767;53.078;7.386;2023-08-07T05:02:55;101071.59;;;13.53;100.00
79309;BME280;68767;53.078;7.386;2023-08-07T05:05:23;101072.53;;;13.57;100.00
79309;BME280;68767;53.078;7.386;2023-08-07T05:07:50;101064.44;;;13.57;100.00
79309;BME280;68767;53.078;7.386;2023-08-07T05:10:17;101064.88;;;13.59;100.00
79309;BME280;68767;53.078;7.386;2023-08-07T05:12:44;101072.31;;;13.62;100.00
79309;BME280;68767;53.078;7.386;2023-08-07T05:15:11;101073.63;;;13.56;100.00
79309;BME280;68767;53.078;7.386;2023-08-07T05:17:38;101075.69;;;13.59;100.00
79309;BME280;68767;53.078;7.386;2023-08-07T05:20:06;101071.41;;;13.58;100.00
79309;BME280;68767;53.078;7.386;2023-08-07T05:22:33;101073.25;;;13.66;100.00
79309;BME280;68767;53.078;7.386;2023-08-07T05:25:00;101081.34;;;13.66;100.00
79309;BME280;68767;53.078;7.386;2023-08-07T05:27:27;101082.00;;;13.63;100.00
79309;BME280;68767;53.078;7.386;2023-08-07T05:29:54;101081.91;;;13.72;100.00
79309;BME280;68767;53.078;7.386;2023-08-07T05:32:21;101085.31;;;13.81;100.00
79309;BME280;68767;53.078;7.386;2023-08-07T05:34:48;101084.06;;;13.78;100.00
79309;BME280;68767;53.078;7.386;2023-08-07T05:37:15;101086.09;;;13.82;100.00
79309;BME280;68767;53.078;7.386;2023-08-07T05:39:42;101095.13;;;13.86;100.00
79309;BME280;68767;53.078;7.386;2023-08-07T05:42:09;101103.03;;;13.91;100.00
79309;BME280;68767;53.078;7.386;2023-08-07T05:44:36;101099.75;;;13.85;100.00
79309;BME280;68767;53.078;7.386;2023-08-07T05:47:04;101111.28;;;13.73;100.00
79309;BME280;68767;53.078;7.386;2023-08-07T05:49:31;101110.63;;;13.76;100.00
79309;BME280;68767;53.078;7.386;2023-08-07T05:51:58;101130.31;;;13.77;100.00
79309;BME280;68767;53.078;7.386;2023-08-07T05:54:25;101126.69;;;13.73;100.00
79309;BME280;68767;53.078;7.386;2023-08-07T05:56:52;101139.53;;;13.76;100.00
79309;BME280;68767;53.078;7.386;2023-08-07T05:59:19;101139.41;;;13.72;100.00
79309;BME280;68767;53.078;7.386;2023-08-07T06:01:46;101140.59;;;13.63;100.00
79309;BME280;68767;53.078;7.386;2023-08-07T06:04:13;101149.38;;;13.60;100.00
79309;BME280;68767;53.078;7.386;2023-08-07T06:06:40;101147.56;;;13.64;100.00
79309;BME280;68767;53.078;7.386;2023-08-07T06:09:09;101140.19;;;13.73;100.00
79309;BME280;68767;53.078;7.386;2023-08-07T06:11:38;101152.66;;;13.65;100.00
79309;BME280;68767;53.078;7.386;2023-08-07T06:14:04;101152.34;;;13.67;100.00
79309;BME280;68767;53.078;7.386;2023-08-07T06:16:31;101160.44;;;13.67;100.00
79309;BME280;68767;53.078;7.386;2023-08-07T06:18:58;101151.22;;;13.68;100.00
79309;BME280;68767;53.078;7.386;2023-08-07T06:21:25;101161.94;;;13.76;100.00
79309;BME280;68767;53.078;7.386;2023-08-07T06:23:54;101158.81;;;13.87;100.00
79309;BME280;68767;53.078;7.386;2023-08-07T06:26:22;101154.81;;;13.93;100.00
79309;BME280;68767;53.078;7.386;2023-08-07T06:28:49;101158.91;;;13.99;100.00
79309;BME280;68767;53.078;7.386;2023-08-07T06:31:18;101160.13;;;14.01;100.00
79309;BME280;68767;53.078;7.386;2023-08-07T06:33:45;101164.00;;;14.13;100.00
79309;BME280;68767;53.078;7.386;2023-08-07T06:36:11;101159.38;;;14.13;100.00
79309;BME280;68767;53.078;7.386;2023-08-07T06:38:38;101154.56;;;14.19;100.00
79309;BME280;68767;53.078;7.386;2023-08-07T06:41:05;101158.91;;;14.44;100.00
79309;BME280;68767;53.078;7.386;2023-08-07T06:43:32;101157.06;;;14.57;100.00
79309;BME280;68767;53.078;7.386;2023-08-07T06:45:59;101172.06;;;14.67;100.00
79309;BME280;68767;53.078;7.386;2023-08-07T06:48:26;101164.28;;;14.65;100.00
79309;BME280;68767;53.078;7.386;2023-08-07T06:50:53;101171.81;;;14.59;100.00
79309;BME280;68767;53.078;7.386;2023-08-07T06:53:20;101177.09;;;14.56;100.00
79309;BME280;68767;53.078;7.386;2023-08-07T06:55:47;101183.88;;;14.29;100.00
79309;BME280;68767;53.078;7.386;2023-08-07T06:58:14;101195.59;;;14.00;100.00
79309;BME280;68767;53.078;7.386;2023-08-07T07:00:41;101180.03;;;13.97;100.00
79309;BME280;68767;53.078;7.386;2023-08-07T07:03:08;101183.13;;;14.08;100.00
79309;BME280;68767;53.078;7.386;2023-08-07T07:05:37;101184.56;;;14.05;100.00
79309;BME280;68767;53.078;7.386;2023-08-07T07:08:04;101183.91;;;14.08;100.00
79309;BME280;68767;53.078;7.386;2023-08-07T07:10:31;101178.97;;;14.10;100.00
79309;BME280;68767;53.078;7.386;2023-08-07T07:12:58;101185.94;;;14.11;100.00
79309;BME280;68767;53.078;7.386;2023-08-07T07:15:25;101186.28;;;14.10;100.00
79309;BME280;68767;53.078;7.386;2023-08-07T07:17:52;101185.63;;;14.13;100.00
79309;BME280;68767;53.078;7.386;2023-08-07T07:20:19;101185.31;;;13.93;100.00
79309;BME280;68767;53.078;7.386;2023-08-07T07:22:47;101187.75;;;14.07;100.00
79309;BME280;68767;53.078;7.386;2023-08-07T07:25:14;101188.66;;;14.11;100.00
79309;BME280;68767;53.078;7.386;2023-08-07T07:27:41;101196.97;;;14.39;100.00
79309;BME280;68767;53.078;7.386;2023-08-07T07:30:08;101198.41;;;14.70;100.00
79309;BME280;68767;53.078;7.386;2023-08-07T07:32:35;101207.31;;;14.70;100.00
79309;BME280;68767;53.078;7.386;2023-08-07T07:35:03;101216.34;;;14.41;100.00
79309;BME280;68767;53.078;7.386;2023-08-07T07:37:31;101204.78;;;14.20;100.00
79309;BME280;68767;53.078;7.386;2023-08-07T07:39:58;101224.72;;;14.15;100.00
79309;BME280;68767;53.078;7.386;2023-08-07T07:42:25;101232.75;;;14.03;100.00
79309;BME280;68767;53.078;7.386;2023-08-07T07:44:52;101233.34;;;14.09;100.00
79309;BME280;68767;53.078;7.386;2023-08-07T07:47:19;101226.75;;;14.18;100.00
79309;BME280;68767;53.078;7.386;2023-08-07T07:49:47;101232.16;;;14.18;100.00
79309;BME280;68767;53.078;7.386;2023-08-07T07:52:14;101234.41;;;14.16;100.00
79309;BME280;68767;53.078;7.386;2023-08-07T07:54:41;101234.56;;;14.32;100.00
79309;BME280;68767;53.078;7.386;2023-08-07T07:57:08;101239.28;;;14.56;100.00
79309;BME280;68767;53.078;7.386;2023-08-07T07:59:35;101237.94;;;14.62;100.00
79309;BME280;68767;53.078;7.386;2023-08-07T08:02:02;101238.56;;;14.80;100.00
79309;BME280;68767;53.078;7.386;2023-08-07T08:04:29;101239.56;;;14.75;100.00
79309;BME280;68767;53.078;7.386;2023-08-07T08:06:57;101240.03;;;14.77;100.00
79309;BME280;68767;53.078;7.386;2023-08-07T08:09:24;101250.25;;;14.72;100.00
79309;BME280;68767;53.078;7.386;2023-08-07T08:11:51;101247.88;;;14.70;100.00
79309;BME280;68767;53.078;7.386;2023-08-07T08:14:18;101260.81;;;15.10;100.00
79309;BME280;68767;53.078;7.386;2023-08-07T08:16:45;101261.28;;;15.24;100.00
79309;BME280;68767;53.078;7.386;2023-08-07T08:19:12;101275.25;;;15.02;100.00
79309;BME280;68767;53.078;7.386;2023-08-07T08:21:38;101270.91;;;14.76;100.00
79309;BME280;68767;53.078;7.386;2023-08-07T08:24:07;101279.13;;;14.47;100.00
79309;BME280;68767;53.078;7.386;2023-08-07T08:26:34;101277.59;;;14.37;100.00
79309;BME280;68767;53.078;7.386;2023-08-07T08:29:01;101280.06;;;14.51;100.00
79309;BME280;68767;53.078;7.386;2023-08-07T08:31:28;101278.84;;;14.94;100.00
79309;BME280;68767;53.078;7.386;2023-08-07T08:33:55;101272.09;;;15.00;100.00
79309;BME280;68767;53.078;7.386;2023-08-07T08:36:22;101269.38;;;15.12;100.00
79309;BME280;68767;53.078;7.386;2023-08-07T08:38:49;101273.91;;;15.08;100.00
79309;BME280;68767;53.078;7.386;2023-08-07T08:41:19;101270.47;;;14.74;100.00
79309;BME280;68767;53.078;7.386;2023-08-07T08:43:46;101264.06;;;14.91;100.00
79309;BME280;68767;53.078;7.386;2023-08-07T08:46:19;101270.41;;;15.07;100.00
79309;BME280;68767;53.078;7.386;2023-08-07T08:48:51;101275.16;;;15.23;100.00
79309;BME280;68767;53.078;7.386;2023-08-07T08:51:25;101274.16;;;15.39;100.00
79309;BME280;68767;53.078;7.386;2023-08-07T08:53:52;101274.59;;;15.29;100.00
79309;BME280;68767;53.078;7.386;2023-08-07T08:56:20;101270.56;;;15.48;100.00
79309;BME280;68767;53.078;7.386;2023-08-07T08:58:50;101282.41;;;15.67;100.00
79309;BME280;68767;53.078;7.386;2023-08-07T09:01:18;101273.00;;;15.77;100.00
79309;BME280;68767;53.078;7.386;2023-08-07T09:03:45;101279.25;;;15.65;100.00
79309;BME280;68767;53.078;7.386;2023-08-07T09:06:13;101265.81;;;15.57;100.00
79309;BME280;68767;53.078;7.386;2023-08-07T09:08:42;101262.09;;;15.73;100.00
79309;BME280;68767;53.078;7.386;2023-08-07T09:11:12;101261.84;;;15.79;100.00
79309;BME280;68767;53.078;7.386;2023-08-07T09:13:40;101277.44;;;15.69;100.00
79309;BME280;68767;53.078;7.386;2023-08-07T09:16:10;101278.88;;;15.42;100.00
79309;BME280;68767;53.078;7.386;2023-08-07T09:18:38;101283.28;;;15.23;100.00
79309;BME280;68767;53.078;7.386;2023-08-07T09:21:06;101284.63;;;15.29;100.00
79309;BME280;68767;53.078;7.386;2023-08-07T09:23:33;101283.19;;;15.56;100.00
79309;BME280;68767;53.078;7.386;2023-08-07T09:26:02;101291.88;;;15.73;100.00
79309;BME280;68767;53.078;7.386;2023-08-07T09:28:32;101314.75;;;15.15;100.00
79309;BME280;68767;53.078;7.386;2023-08-07T09:30:59;101310.25;;;14.86;100.00
79309;BME280;68767;53.078;7.386;2023-08-07T09:33:29;101318.97;;;14.58;100.00
79309;BME280;68767;53.078;7.386;2023-08-07T09:35:58;101322.72;;;14.45;100.00
79309;BME280;68767;53.078;7.386;2023-08-07T09:38:29;101319.25;;;14.78;100.00
79309;BME280;68767;53.078;7.386;2023-08-07T09:41:02;101319.72;;;14.80;100.00
79309;BME280;68767;53.078;7.386;2023-08-07T09:43:36;101316.38;;;14.95;100.00
79309;BME280;68767;53.078;7.386;2023-08-07T09:46:04;101321.16;;;15.10;100.00
79309;BME280;68767;53.078;7.386;2023-08-07T09:48:39;101319.28;;;15.48;100.00
79309;BME280;68767;53.078;7.386;2023-08-07T09:51:09;101331.72;;;15.03;100.00
79309;BME280;68767;53.078;7.386;2023-08-07T09:53:36;101340.38;;;14.43;100.00
79309;BME280;68767;53.078;7.386;2023-08-07T09:56:03;101353.03;;;14.09;100.00
79309;BME280;68767;53.078;7.386;2023-08-07T09:58:30;101357.91;;;13.86;100.00
79309;BME280;68767;53.078;7.386;2023-08-07T10:01:03;101357.28;;;13.81;100.00
79309;BME280;68767;53.078;7.386;2023-08-07T10:03:31;101371.97;;;13.71;100.00
79309;BME280;68767;53.078;7.386;2023-08-07T10:05:59;101367.56;;;13.66;100.00
79309;BME280;68767;53.078;7.386;2023-08-07T10:08:26;101369.47;;;13.66;100.00
79309;BME280;68767;53.078;7.386;2023-08-07T10:10:53;101367.84;;;13.65;100.00
79309;BME280;68767;53.078;7.386;2023-08-07T10:13:21;101365.13;;;14.03;100.00
79309;BME280;68767;53.078;7.386;2023-08-07T10:16:04;101355.16;;;14.45;100.00
79309;BME280;68767;53.078;7.386;2023-08-07T10:18:31;101350.75;;;14.61;100.00
79309;BME280;68767;53.078;7.386;2023-08-07T10:21:00;101353.28;;;14.79;100.00
79309;BME280;68767;53.078;7.386;2023-08-07T10:23:27;101342.09;;;15.01;100.00
79309;BME280;68767;53.078;7.386;2023-08-07T10:25:55;101347.13;;;15.36;100.00
79309;BME280;68767;53.078;7.386;2023-08-07T10:28:24;101347.31;;;15.64;100.00
79309;BME280;68767;53.078;7.386;2023-08-07T10:30:55;101334.16;;;16.02;100.00
79309;BME280;68767;53.078;7.386;2023-08-07T10:33:23;101337.66;;;16.55;100.00
79309;BME280;68767;53.078;7.386;2023-08-07T10:35:52;101330.63;;;16.54;100.00
79309;BME280;68767;53.078;7.386;2023-08-07T10:38:24;101328.78;;;16.43;100.00
79309;BME280;68767;53.078;7.386;2023-08-07T10:43:30;101335.75;;;16.16;100.00
79309;BME280;68767;53.078;7.386;2023-08-07T10:46:03;101336.09;;;16.02;100.00
79309;BME280;68767;53.078;7.386;2023-08-07T10:48:41;101340.50;;;15.94;100.00
79309;BME280;68767;53.078;7.386;2023-08-07T10:51:08;101350.91;;;15.68;100.00
79309;BME280;68767;53.078;7.386;2023-08-07T10:53:39;101365.97;;;15.44;100.00
79309;BME280;68767;53.078;7.386;2023-08-07T10:56:11;101373.97;;;15.29;100.00
79309;BME280;68767;53.078;7.386;2023-08-07T10:58:39;101380.84;;;15.26;100.00
79309;BME280;68767;53.078;7.386;2023-08-07T11:03:57;101379.06;;;15.55;100.00
79309;BME280;68767;53.078;7.386;2023-08-07T11:06:32;101383.09;;;15.94;100.00
79309;BME280;68767;53.078;7.386;2023-08-07T11:09:00;101371.59;;;15.72;100.00
79309;BME280;68767;53.078;7.386;2023-08-07T11:11:27;101384.09;;;15.65;100.00
79309;BME280;68767;53.078;7.386;2023-08-07T11:13:54;101381.56;;;15.60;100.00
79309;BME280;68767;53.078;7.386;2023-08-07T11:16:21;101378.44;;;15.70;100.00
79309;BME280;68767;53.078;7.386;2023-08-07T11:18:50;101393.22;;;15.97;100.00
79309;BME280;68767;53.078;7.386;2023-08-07T11:21:18;101386.13;;;15.92;100.00
79309;BME280;68767;53.078;7.386;2023-08-07T11:23:45;101392.13;;;15.86;100.00
79309;BME280;68767;53.078;7.386;2023-08-07T11:26:13;101393.03;;;15.90;100.00
79309;BME280;68767;53.078;7.386;2023-08-07T11:28:40;101400.13;;;15.70;100.00
79309;BME280;68767;53.078;7.386;2023-08-07T11:31:07;101382.25;;;15.57;100.00
79309;BME280;68767;53.078;7.386;2023-08-07T11:33:35;101396.22;;;15.46;100.00
79309;BME280;68767;53.078;7.386;2023-08-07T11:36:03;101397.38;;;15.58;100.00
79309;BME280;68767;53.078;7.386;2023-08-07T11:38:37;101390.44;;;16.06;100.00
79309;BME280;68767;53.078;7.386;2023-08-07T11:41:05;101381.16;;;16.59;100.00
79309;BME280;68767;53.078;7.386;2023-08-07T11:43:34;101380.34;;;16.99;100.00
79309;BME280;68767;53.078;7.386;2023-08-07T11:46:06;101378.47;;;17.15;100.00
79309;BME280;68767;53.078;7.386;2023-08-07T11:48:36;101378.16;;;17.64;100.00
79309;BME280;68767;53.078;7.386;2023-08-07T11:51:03;101388.94;;;18.27;100.00
79309;BME280;68767;53.078;7.386;2023-08-07T11:53:32;101355.44;;;18.42;100.00
79309;BME280;68767;53.078;7.386;2023-08-07T11:56:02;101364.16;;;18.13;100.00
79309;BME280;68767;53.078;7.386;2023-08-07T11:58:37;101377.00;;;18.32;100.00
79309;BME280;68767;53.078;7.386;2023-08-07T12:01:12;101388.97;;;18.46;100.00
79309;BME280;68767;53.078;7.386;2023-08-07T12:04:29;101368.16;;;17.84;100.00
79309;BME280;68767;53.078;7.386;2023-08-07T12:06:31;101377.50;;;17.23;100.00
79309;BME280;68767;53.078;7.386;2023-08-07T12:08:59;101381.09;;;16.83;100.00
79309;BME280;68767;53.078;7.386;2023-08-07T12:11:26;101383.81;;;16.83;100.00
79309;BME280;68767;53.078;7.386;2023-08-07T12:13:55;101391.16;;;16.83;100.00
79309;BME280;68767;53.078;7.386;2023-08-07T12:16:22;101384.09;;;16.94;100.00
79309;BME280;68767;53.078;7.386;2023-08-07T12:18:51;101374.38;;;17.21;100.00
79309;BME280;68767;53.078;7.386;2023-08-07T12:21:20;101390.47;;;17.14;100.00
79309;BME280;68767;53.078;7.386;2023-08-07T12:23:50;101395.38;;;16.80;100.00
79309;BME280;68767;53.078;7.386;2023-08-07T12:26:17;101392.44;;;16.61;100.00
79309;BME280;68767;53.078;7.386;2023-08-07T12:28:44;101389.91;;;16.40;100.00
79309;BME280;68767;53.078;7.386;2023-08-07T12:31:11;101394.28;;;16.57;100.00
79309;BME280;68767;53.078;7.386;2023-08-07T12:33:38;101397.50;;;17.03;100.00
79309;BME280;68767;53.078;7.386;2023-08-07T12:36:05;101391.44;;;17.22;100.00
79309;BME280;68767;53.078;7.386;2023-08-07T12:38:46;101398.63;;;17.46;100.00
79309;BME280;68767;53.078;7.386;2023-08-07T12:41:14;101397.69;;;17.69;100.00
79309;BME280;68767;53.078;7.386;2023-08-07T12:43:44;101405.94;;;18.05;100.00
79309;BME280;68767;53.078;7.386;2023-08-07T12:46:11;101392.94;;;18.68;100.00
79309;BME280;68767;53.078;7.386;2023-08-07T12:48:41;101394.72;;;18.25;100.00
79309;BME280;68767;53.078;7.386;2023-08-07T12:51:08;101403.53;;;18.54;100.00
79309;BME280;68767;53.078;7.386;2023-08-07T12:53:35;101398.94;;;17.88;100.00
79309;BME280;68767;53.078;7.386;2023-08-07T12:56:01;101400.09;;;17.27;100.00
79309;BME280;68767;53.078;7.386;2023-08-07T12:58:29;101420.28;;;16.58;100.00
79309;BME280;68767;53.078;7.386;2023-08-07T13:00:56;101447.78;;;15.83;100.00
79309;BME280;68767;53.078;7.386;2023-08-07T13:03:24;101438.06;;;15.37;100.00